North Woods Beach, Wisconsin
Current Conditions -  °F | °C
As of 6:15 AM on Monday 26 Jan 2015 (Local Time) from KHYR Reporting Station
Light Snow Light Snow  
Wind Chill:   Ceiling: 2800
Heat Index: 18°   Visibility: 1mi
Dew Point: 13°   Wind: 8mph
Humidity: 81%   Direction: 180°S
Pressure: 29.73"   Gusts: NA
Location:  46.0387°N, 91.2627°W
Report Text: KHYR 261215Z AUTO 18007KT 1SM -SN BKN028 OVC070 M08/M11 A2973 RMK AO2 SNB1158 P0000 T10781106
Loading
Personal Weather Stations






























Interactive Weather Map New forecast layout! Learn more

10-Day Weather Forecast

Advertisements
Track Severe Weather on mobile